Atlantic Osprey — CFH8950 — position and weather

sailwx.info

Track history (hours):
 
Tides and Currents Weather Stations Pressure Air Temp Water Temp Dewpoint Dewpoint Depression Visibility Wind Speed Wind Dir Waves Ship Positions

Atlantic Osprey

Last reported at 2017-Jan-21 22:33 UTC. Time now 2017-Jan-24 19:23 UTC.
Position N 47°32' W 052°30'.

Length 3 m; draft 6.4 m.

Type: Tug. MMSI: 316004850.

Date/timePositionNaut miles runAvg speedWind from/ knotsBaromVisibWave heightAir tempDewpointWater temp
2017-Jan-21 22:33N 47°32' W 052°30'9 8.7
2017-Jan-21 21:33N 47°34' W 052°42'0 0.1
2017-Jan-21 20:32N 47°34' W 052°42'0 0.0
2017-Jan-21 19:33N 47°34' W 052°42'0 0.0
2017-Jan-21 18:33N 47°34' W 052°42'0 0.0
2017-Jan-21 17:33N 47°34' W 052°42'0 0.0
2017-Jan-21 16:33N 47°34' W 052°42'0 0.0
2017-Jan-21 15:33N 47°34' W 052°42'0 0.0
2017-Jan-21 14:29N 47°34' W 052°42'0 0.0
2017-Jan-21 13:32N 47°34' W 052°42'0 0.0
2017-Jan-21 12:33N 47°34' W 052°42'0 0.0
2017-Jan-21 11:32N 47°34' W 052°42'0 0.0
2017-Jan-21 10:32N 47°34' W 052°42'0 0.0
2017-Jan-21 09:31N 47°34' W 052°42'0 0.0
2017-Jan-21 08:29N 47°34' W 052°42'0 0.0
2017-Jan-21 07:32N 47°34' W 052°42'2 2.0
2017-Jan-21 06:27N 47°34' W 052°39'4 0.1
2017-Jan-19 03:33N 47°33' W 052°34'5 5.4
2017-Jan-19 02:33N 47°34' W 052°42'0 0.0
2017-Jan-19 01:25N 47°34' W 052°42'0 0.0
2017-Jan-19 00:28N 47°34' W 052°42'0 0.0
2017-Jan-18 23:32N 47°34' W 052°42'0 0.0
2017-Jan-18 22:33N 47°34' W 052°42'0 0.0
2017-Jan-18 21:33N 47°34' W 052°42'0 0.0
2017-Jan-18 20:28N 47°34' W 052°42'0 0.0
2017-Jan-18 19:29N 47°34' W 052°42'0 0.0
2017-Jan-18 18:29N 47°34' W 052°42'0 0.0
2017-Jan-18 17:30N 47°34' W 052°42'0 0.0
2017-Jan-18 16:31N 47°34' W 052°42'0 0.0
2017-Jan-18 15:31N 47°34' W 052°42'0 0.0
2017-Jan-18 14:32N 47°34' W 052°42'0 0.0
2017-Jan-18 13:33N 47°34' W 052°42'0 0.0
2017-Jan-18 12:33N 47°34' W 052°42'0 0.0
2017-Jan-18 11:28N 47°34' W 052°42'0 0.0
2017-Jan-18 10:23N 47°34' W 052°42'0 0.0
2017-Jan-18 09:29N 47°34' W 052°42'0 0.0
2017-Jan-18 08:30N 47°34' W 052°42'0 0.0
2017-Jan-18 07:31N 47°34' W 052°42'0 0.0
2017-Jan-18 06:31N 47°34' W 052°42'0 0.0
2017-Jan-18 05:32N 47°34' W 052°42'0 0.0
2017-Jan-18 04:33N 47°34' W 052°42'0 0.0
2017-Jan-18 03:33N 47°34' W 052°42'0 0.0
2017-Jan-18 02:28N 47°34' W 052°42'0 0.0
2017-Jan-18 01:29N 47°34' W 052°42'0 0.0
2017-Jan-18 00:29N 47°34' W 052°42'0 0.0
2017-Jan-17 23:30N 47°34' W 052°42'0 0.0
2017-Jan-17 22:31N 47°34' W 052°42'0 0.0
2017-Jan-17 21:31N 47°34' W 052°42'0 0.0
2017-Jan-17 20:32N 47°34' W 052°42'0 0.0
2017-Jan-17 19:33N 47°34' W 052°42'0 0.0
2017-Jan-17 18:33N 47°34' W 052°42'0 0.0
2017-Jan-17 17:28N 47°34' W 052°42'0 0.0
2017-Jan-17 16:29N 47°34' W 052°42'0 0.0
2017-Jan-17 15:29N 47°34' W 052°42'0 0.0
2017-Jan-17 14:30N 47°34' W 052°42'0 0.0
2017-Jan-17 13:31N 47°34' W 052°42'0 0.0
2017-Jan-17 12:31N 47°34' W 052°42'0 0.0
2017-Jan-17 11:32N 47°34' W 052°42'0 0.0
2017-Jan-17 10:33N 47°34' W 052°42'0 0.0
2017-Jan-17 09:33N 47°34' W 052°42'0 0.0
2017-Jan-17 08:28N 47°34' W 052°42'0 0.0
2017-Jan-17 07:26N 47°34' W 052°42'0 0.0
2017-Jan-17 06:21N 47°34' W 052°42'0 0.0
2017-Jan-17 05:33N 47°34' W 052°42'0 0.0
2017-Jan-17 04:19N 47°34' W 052°42'0 0.0
2017-Jan-17 03:32N 47°34' W 052°42'0 0.5
2017-Jan-17 02:30N 47°34' W 052°42'0 0.0
2017-Jan-17 01:33N 47°34' W 052°42'0 0.0
2017-Jan-17 00:33N 47°34' W 052°42'0 0.0
2017-Jan-16 23:32N 47°34' W 052°42'0 0.0
2017-Jan-16 22:32N 47°34' W 052°42'8 7.8
2017-Jan-16 21:31N 47°33' W 052°30'  
Track history (hours):
 
Tides and Currents Weather Stations Pressure Air Temp Water Temp Dewpoint Dewpoint Depression Visibility Wind Speed Wind Dir Waves Ship Positions

Atlantic Osprey

Last reported at 2017-Jan-21 22:33 UTC. Time now 2017-Jan-24 19:23 UTC.
Position N 47°32' W 052°30'.

Length 3 m; draft 6.4 m.

Type: Tug. MMSI: 316004850.

Date/timePositionNaut miles runAvg speedWind from/ knotsBaromVisibWave heightAir tempDewpointWater temp
2017-Jan-21 22:33N 47°32' W 052°30'9 8.7
2017-Jan-21 21:33N 47°34' W 052°42'0 0.1
2017-Jan-21 20:32N 47°34' W 052°42'0 0.0
2017-Jan-21 19:33N 47°34' W 052°42'0 0.0
2017-Jan-21 18:33N 47°34' W 052°42'0 0.0
2017-Jan-21 17:33N 47°34' W 052°42'0 0.0
2017-Jan-21 16:33N 47°34' W 052°42'0 0.0
2017-Jan-21 15:33N 47°34' W 052°42'0 0.0
2017-Jan-21 14:29N 47°34' W 052°42'0 0.0
2017-Jan-21 13:32N 47°34' W 052°42'0 0.0
2017-Jan-21 12:33N 47°34' W 052°42'0 0.0
2017-Jan-21 11:32N 47°34' W 052°42'0 0.0
2017-Jan-21 10:32N 47°34' W 052°42'0 0.0
2017-Jan-21 09:31N 47°34' W 052°42'0 0.0
2017-Jan-21 08:29N 47°34' W 052°42'0 0.0
2017-Jan-21 07:32N 47°34' W 052°42'2 2.0
2017-Jan-21 06:27N 47°34' W 052°39'4 0.1
2017-Jan-19 03:33N 47°33' W 052°34'5 5.4
2017-Jan-19 02:33N 47°34' W 052°42'0 0.0
2017-Jan-19 01:25N 47°34' W 052°42'0 0.0
2017-Jan-19 00:28N 47°34' W 052°42'0 0.0
2017-Jan-18 23:32N 47°34' W 052°42'0 0.0
2017-Jan-18 22:33N 47°34' W 052°42'0 0.0
2017-Jan-18 21:33N 47°34' W 052°42'0 0.0
2017-Jan-18 20:28N 47°34' W 052°42'0 0.0
2017-Jan-18 19:29N 47°34' W 052°42'0 0.0
2017-Jan-18 18:29N 47°34' W 052°42'0 0.0
2017-Jan-18 17:30N 47°34' W 052°42'0 0.0
2017-Jan-18 16:31N 47°34' W 052°42'0 0.0
2017-Jan-18 15:31N 47°34' W 052°42'0 0.0
2017-Jan-18 14:32N 47°34' W 052°42'0 0.0
2017-Jan-18 13:33N 47°34' W 052°42'0 0.0
2017-Jan-18 12:33N 47°34' W 052°42'0 0.0
2017-Jan-18 11:28N 47°34' W 052°42'0 0.0
2017-Jan-18 10:23N 47°34' W 052°42'0 0.0
2017-Jan-18 09:29N 47°34' W 052°42'0 0.0
2017-Jan-18 08:30N 47°34' W 052°42'0 0.0
2017-Jan-18 07:31N 47°34' W 052°42'0 0.0
2017-Jan-18 06:31N 47°34' W 052°42'0 0.0
2017-Jan-18 05:32N 47°34' W 052°42'0 0.0
2017-Jan-18 04:33N 47°34' W 052°42'0 0.0
2017-Jan-18 03:33N 47°34' W 052°42'0 0.0
2017-Jan-18 02:28N 47°34' W 052°42'0 0.0
2017-Jan-18 01:29N 47°34' W 052°42'0 0.0
2017-Jan-18 00:29N 47°34' W 052°42'0 0.0
2017-Jan-17 23:30N 47°34' W 052°42'0 0.0
2017-Jan-17 22:31N 47°34' W 052°42'0 0.0
2017-Jan-17 21:31N 47°34' W 052°42'0 0.0
2017-Jan-17 20:32N 47°34' W 052°42'0 0.0
2017-Jan-17 19:33N 47°34' W 052°42'0 0.0
2017-Jan-17 18:33N 47°34' W 052°42'0 0.0
2017-Jan-17 17:28N 47°34' W 052°42'0 0.0
2017-Jan-17 16:29N 47°34' W 052°42'0 0.0
2017-Jan-17 15:29N 47°34' W 052°42'0 0.0
2017-Jan-17 14:30N 47°34' W 052°42'0 0.0
2017-Jan-17 13:31N 47°34' W 052°42'0 0.0
2017-Jan-17 12:31N 47°34' W 052°42'0 0.0
2017-Jan-17 11:32N 47°34' W 052°42'0 0.0
2017-Jan-17 10:33N 47°34' W 052°42'0 0.0
2017-Jan-17 09:33N 47°34' W 052°42'0 0.0
2017-Jan-17 08:28N 47°34' W 052°42'0 0.0
2017-Jan-17 07:26N 47°34' W 052°42'0 0.0
2017-Jan-17 06:21N 47°34' W 052°42'0 0.0
2017-Jan-17 05:33N 47°34' W 052°42'0 0.0
2017-Jan-17 04:19N 47°34' W 052°42'0 0.0
2017-Jan-17 03:32N 47°34' W 052°42'0 0.5
2017-Jan-17 02:30N 47°34' W 052°42'0 0.0
2017-Jan-17 01:33N 47°34' W 052°42'0 0.0
2017-Jan-17 00:33N 47°34' W 052°42'0 0.0
2017-Jan-16 23:32N 47°34' W 052°42'0 0.0
2017-Jan-16 22:32N 47°34' W 052°42'8 7.8
2017-Jan-16 21:31N 47°33' W 052°30'  

Dump ship's entire track history